sensor_id;sensor_type;location;lat;lon;timestamp;temperature;humidity
14359;DHT22;7263;49.418;11.064;2023-03-01T00:02:20;-1.00;99.90
14359;DHT22;7263;49.418;11.064;2023-03-01T00:04:47;-1.00;99.90
14359;DHT22;7263;49.418;11.064;2023-03-01T00:07:14;-1.00;99.90
14359;DHT22;7263;49.418;11.064;2023-03-01T00:09:41;-1.00;99.90
14359;DHT22;7263;49.418;11.064;2023-03-01T00:12:08;-1.00;99.90
14359;DHT22;7263;49.418;11.064;2023-03-01T00:14:36;-1.00;99.90
14359;DHT22;7263;49.418;11.064;2023-03-01T00:17:04;-0.90;99.90
14359;DHT22;7263;49.418;11.064;2023-03-01T00:19:31;-0.90;99.90
14359;DHT22;7263;49.418;11.064;2023-03-01T00:21:58;-0.90;99.90
14359;DHT22;7263;49.418;11.064;2023-03-01T00:24:24;-0.90;99.90
14359;DHT22;7263;49.418;11.064;2023-03-01T00:26:53;-0.90;99.90
14359;DHT22;7263;49.418;11.064;2023-03-01T00:29:24;-1.00;99.90
14359;DHT22;7263;49.418;11.064;2023-03-01T00:31:50;-1.00;99.90
14359;DHT22;7263;49.418;11.064;2023-03-01T00:34:19;-1.00;99.90
14359;DHT22;7263;49.418;11.064;2023-03-01T00:36:45;-1.00;99.90
14359;DHT22;7263;49.418;11.064;2023-03-01T00:39:14;-1.10;99.90
14359;DHT22;7263;49.418;11.064;2023-03-01T00:41:41;-1.10;99.90
14359;DHT22;7263;49.418;11.064;2023-03-01T00:44:08;-1.00;99.90
14359;DHT22;7263;49.418;11.064;2023-03-01T00:46:35;-1.10;99.90
14359;DHT22;7263;49.418;11.064;2023-03-01T00:49:02;-1.00;99.90
14359;DHT22;7263;49.418;11.064;2023-03-01T00:51:31;-1.10;99.90
14359;DHT22;7263;49.418;11.064;2023-03-01T00:54:00;-1.10;99.90
14359;DHT22;7263;49.418;11.064;2023-03-01T00:56:27;-1.10;99.90
14359;DHT22;7263;49.418;11.064;2023-03-01T00:58:55;-1.10;99.90
14359;DHT22;7263;49.418;11.064;2023-03-01T01:01:24;-1.10;99.90
14359;DHT22;7263;49.418;11.064;2023-03-01T01:03:54;-1.00;99.90
14359;DHT22;7263;49.418;11.064;2023-03-01T01:06:24;-1.00;99.90
14359;DHT22;7263;49.418;11.064;2023-03-01T01:08:53;-1.00;99.90
14359;DHT22;7263;49.418;11.064;2023-03-01T01:11:21;-1.00;99.90
14359;DHT22;7263;49.418;11.064;2023-03-01T01:13:49;-1.00;99.90
14359;DHT22;7263;49.418;11.064;2023-03-01T01:16:20;-1.00;99.90
14359;DHT22;7263;49.418;11.064;2023-03-01T01:18:47;-1.00;99.90
14359;DHT22;7263;49.418;11.064;2023-03-01T01:21:16;-1.00;99.90
14359;DHT22;7263;49.418;11.064;2023-03-01T01:23:44;-1.10;99.90
14359;DHT22;7263;49.418;11.064;2023-03-01T01:26:17;-1.10;99.90
14359;DHT22;7263;49.418;11.064;2023-03-01T01:28:45;-1.00;99.90
14359;DHT22;7263;49.418;11.064;2023-03-01T01:31:15;-1.10;99.90
14359;DHT22;7263;49.418;11.064;2023-03-01T01:33:42;-1.00;99.90
14359;DHT22;7263;49.418;11.064;2023-03-01T01:36:09;-0.80;99.90
14359;DHT22;7263;49.418;11.064;2023-03-01T01:38:37;-1.00;99.90
14359;DHT22;7263;49.418;11.064;2023-03-01T01:41:05;-1.10;99.90
14359;DHT22;7263;49.418;11.064;2023-03-01T01:43:36;-1.10;99.90
14359;DHT22;7263;49.418;11.064;2023-03-01T01:46:05;-1.10;99.90
14359;DHT22;7263;49.418;11.064;2023-03-01T01:48:37;-1.20;99.90
14359;DHT22;7263;49.418;11.064;2023-03-01T01:51:09;-1.20;99.90
14359;DHT22;7263;49.418;11.064;2023-03-01T01:53:38;-1.30;99.90
14359;DHT22;7263;49.418;11.064;2023-03-01T01:56:08;-1.30;99.90
14359;DHT22;7263;49.418;11.064;2023-03-01T01:58:39;-1.30;99.90
14359;DHT22;7263;49.418;11.064;2023-03-01T02:01:07;-1.30;99.90
14359;DHT22;7263;49.418;11.064;2023-03-01T02:03:37;-1.40;99.90
14359;DHT22;7263;49.418;11.064;2023-03-01T02:06:12;-1.40;99.90
14359;DHT22;7263;49.418;11.064;2023-03-01T02:08:40;-1.50;99.90
14359;DHT22;7263;49.418;11.064;2023-03-01T02:11:09;-1.50;99.90
14359;DHT22;7263;49.418;11.064;2023-03-01T02:13:38;-1.50;99.90
14359;DHT22;7263;49.418;11.064;2023-03-01T02:16:08;-1.50;99.90
14359;DHT22;7263;49.418;11.064;2023-03-01T02:18:37;-1.60;99.90
14359;DHT22;7263;49.418;11.064;2023-03-01T02:21:11;-1.60;99.90
14359;DHT22;7263;49.418;11.064;2023-03-01T02:23:41;-1.70;99.90
14359;DHT22;7263;49.418;11.064;2023-03-01T02:26:14;-1.70;99.90
14359;DHT22;7263;49.418;11.064;2023-03-01T02:28:44;-1.70;99.90
14359;DHT22;7263;49.418;11.064;2023-03-01T02:31:14;-1.80;99.90
14359;DHT22;7263;49.418;11.064;2023-03-01T02:34:00;-1.80;99.90
14359;DHT22;7263;49.418;11.064;2023-03-01T02:36:31;-1.80;99.90
14359;DHT22;7263;49.418;11.064;2023-03-01T02:39:02;-1.80;99.90
14359;DHT22;7263;49.418;11.064;2023-03-01T02:41:34;-1.80;99.90
14359;DHT22;7263;49.418;11.064;2023-03-01T02:44:03;-1.80;99.90
14359;DHT22;7263;49.418;11.064;2023-03-01T02:46:31;-1.70;99.90
14359;DHT22;7263;49.418;11.064;2023-03-01T02:48:58;-1.70;99.90
14359;DHT22;7263;49.418;11.064;2023-03-01T02:51:34;-1.70;99.90
14359;DHT22;7263;49.418;11.064;2023-03-01T02:54:11;-1.70;99.90
14359;DHT22;7263;49.418;11.064;2023-03-01T02:56:39;-1.80;99.90
14359;DHT22;7263;49.418;11.064;2023-03-01T02:59:08;-1.80;99.90
14359;DHT22;7263;49.418;11.064;2023-03-01T03:01:35;-1.80;99.90
14359;DHT22;7263;49.418;11.064;2023-03-01T03:04:05;-1.80;99.90
14359;DHT22;7263;49.418;11.064;2023-03-01T03:06:33;-1.80;99.90
14359;DHT22;7263;49.418;11.064;2023-03-01T03:09:00;-1.80;99.90
14359;DHT22;7263;49.418;11.064;2023-03-01T03:11:27;-1.90;99.90
14359;DHT22;7263;49.418;11.064;2023-03-01T03:13:54;-1.90;99.90
14359;DHT22;7263;49.418;11.064;2023-03-01T03:16:22;-1.90;99.90
14359;DHT22;7263;49.418;11.064;2023-03-01T03:18:50;-1.90;99.90
14359;DHT22;7263;49.418;11.064;2023-03-01T03:21:17;-1.90;99.90
14359;DHT22;7263;49.418;11.064;2023-03-01T03:23:44;-1.90;99.90
14359;DHT22;7263;49.418;11.064;2023-03-01T03:26:10;-1.80;99.90
14359;DHT22;7263;49.418;11.064;2023-03-01T03:28:40;-1.90;99.90
14359;DHT22;7263;49.418;11.064;2023-03-01T03:31:08;-1.90;99.90
14359;DHT22;7263;49.418;11.064;2023-03-01T03:33:36;-1.90;99.90
14359;DHT22;7263;49.418;11.064;2023-03-01T03:36:03;-1.90;99.90
14359;DHT22;7263;49.418;11.064;2023-03-01T03:38:30;-1.90;99.90
14359;DHT22;7263;49.418;11.064;2023-03-01T03:41:02;-1.90;99.90
14359;DHT22;7263;49.418;11.064;2023-03-01T03:43:31;-1.90;99.90
14359;DHT22;7263;49.418;11.064;2023-03-01T03:45:59;-1.90;99.90
14359;DHT22;7263;49.418;11.064;2023-03-01T03:48:26;-1.80;99.90
14359;DHT22;7263;49.418;11.064;2023-03-01T03:50:55;-1.80;99.90
14359;DHT22;7263;49.418;11.064;2023-03-01T03:53:24;-1.80;99.90
14359;DHT22;7263;49.418;11.064;2023-03-01T03:55:51;-1.80;99.90
14359;DHT22;7263;49.418;11.064;2023-03-01T03:58:19;-1.70;99.90
14359;DHT22;7263;49.418;11.064;2023-03-01T04:00:48;-1.80;99.90
14359;DHT22;7263;49.418;11.064;2023-03-01T04:03:17;-1.80;99.90
14359;DHT22;7263;49.418;11.064;2023-03-01T04:05:45;-1.80;99.90
14359;DHT22;7263;49.418;11.064;2023-03-01T04:10:46;-1.80;99.90
14359;DHT22;7263;49.418;11.064;2023-03-01T04:13:15;-1.80;99.90
14359;DHT22;7263;49.418;11.064;2023-03-01T04:15:45;-1.70;99.90
14359;DHT22;7263;49.418;11.064;2023-03-01T04:18:13;-1.70;99.90
14359;DHT22;7263;49.418;11.064;2023-03-01T04:20:41;-1.70;99.90
14359;DHT22;7263;49.418;11.064;2023-03-01T04:23:10;-1.80;99.90
14359;DHT22;7263;49.418;11.064;2023-03-01T04:25:42;-1.90;99.90
14359;DHT22;7263;49.418;11.064;2023-03-01T04:28:09;-2.00;99.90
14359;DHT22;7263;49.418;11.064;2023-03-01T04:30:36;-2.00;99.90
14359;DHT22;7263;49.418;11.064;2023-03-01T04:33:04;-2.00;99.90
14359;DHT22;7263;49.418;11.064;2023-03-01T04:35:32;-2.00;99.90
14359;DHT22;7263;49.418;11.064;2023-03-01T04:38:00;-2.10;99.90
14359;DHT22;7263;49.418;11.064;2023-03-01T04:40:27;-2.10;99.90
14359;DHT22;7263;49.418;11.064;2023-03-01T04:42:55;-2.10;99.90
14359;DHT22;7263;49.418;11.064;2023-03-01T04:45:22;-2.10;99.90
14359;DHT22;7263;49.418;11.064;2023-03-01T04:47:49;-2.10;99.90
14359;DHT22;7263;49.418;11.064;2023-03-01T04:50:20;-2.10;99.90
14359;DHT22;7263;49.418;11.064;2023-03-01T04:52:48;-2.10;99.90
14359;DHT22;7263;49.418;11.064;2023-03-01T04:55:15;-2.10;99.90
14359;DHT22;7263;49.418;11.064;2023-03-01T04:57:42;-2.10;99.90
14359;DHT22;7263;49.418;11.064;2023-03-01T05:00:13;-2.10;99.90
14359;DHT22;7263;49.418;11.064;2023-03-01T05:02:50;-2.10;99.90
14359;DHT22;7263;49.418;11.064;2023-03-01T05:05:23;-2.10;99.90
14359;DHT22;7263;49.418;11.064;2023-03-01T05:07:52;-2.10;99.90
14359;DHT22;7263;49.418;11.064;2023-03-01T05:10:19;-2.20;99.90
14359;DHT22;7263;49.418;11.064;2023-03-01T05:12:46;-2.20;99.90
14359;DHT22;7263;49.418;11.064;2023-03-01T05:15:14;-2.20;99.90
14359;DHT22;7263;49.418;11.064;2023-03-01T05:17:41;-2.30;99.90
14359;DHT22;7263;49.418;11.064;2023-03-01T05:20:09;-2.20;99.90
14359;DHT22;7263;49.418;11.064;2023-03-01T05:22:37;-2.30;99.90
14359;DHT22;7263;49.418;11.064;2023-03-01T05:25:04;-2.30;99.90
14359;DHT22;7263;49.418;11.064;2023-03-01T05:27:32;-2.30;99.90
14359;DHT22;7263;49.418;11.064;2023-03-01T05:29:59;-2.30;99.90
14359;DHT22;7263;49.418;11.064;2023-03-01T05:32:40;-2.30;99.90
14359;DHT22;7263;49.418;11.064;2023-03-01T05:35:08;-2.20;99.90
14359;DHT22;7263;49.418;11.064;2023-03-01T05:37:39;-2.20;99.90
14359;DHT22;7263;49.418;11.064;2023-03-01T05:40:06;-2.20;99.90
14359;DHT22;7263;49.418;11.064;2023-03-01T05:42:44;-2.20;99.90
14359;DHT22;7263;49.418;11.064;2023-03-01T05:45:11;-2.20;99.90
14359;DHT22;7263;49.418;11.064;2023-03-01T05:47:40;-2.20;99.90
14359;DHT22;7263;49.418;11.064;2023-03-01T05:50:11;-2.20;99.90
14359;DHT22;7263;49.418;11.064;2023-03-01T05:52:38;-2.20;99.90
14359;DHT22;7263;49.418;11.064;2023-03-01T05:55:06;-2.30;99.90
14359;DHT22;7263;49.418;11.064;2023-03-01T05:57:33;-2.30;99.90
14359;DHT22;7263;49.418;11.064;2023-03-01T05:59:59;-2.30;99.90
14359;DHT22;7263;49.418;11.064;2023-03-01T06:02:26;-2.30;99.90
14359;DHT22;7263;49.418;11.064;2023-03-01T06:04:56;-2.30;99.90
14359;DHT22;7263;49.418;11.064;2023-03-01T06:07:22;-2.30;99.90
14359;DHT22;7263;49.418;11.064;2023-03-01T06:09:49;-2.30;99.90
14359;DHT22;7263;49.418;11.064;2023-03-01T06:12:16;-2.30;99.90
14359;DHT22;7263;49.418;11.064;2023-03-01T06:14:43;-2.30;99.90
14359;DHT22;7263;49.418;11.064;2023-03-01T06:17:09;-2.20;99.90
14359;DHT22;7263;49.418;11.064;2023-03-01T06:19:36;-2.10;99.90
14359;DHT22;7263;49.418;11.064;2023-03-01T06:22:04;-2.10;99.90
14359;DHT22;7263;49.418;11.064;2023-03-01T06:24:31;-2.10;99.90
14359;DHT22;7263;49.418;11.064;2023-03-01T06:26:58;-2.10;99.90
14359;DHT22;7263;49.418;11.064;2023-03-01T06:29:25;-2.10;99.90
14359;DHT22;7263;49.418;11.064;2023-03-01T06:31:52;-2.00;99.90
14359;DHT22;7263;49.418;11.064;2023-03-01T06:34:19;-2.00;99.90
14359;DHT22;7263;49.418;11.064;2023-03-01T06:36:47;-2.00;99.90
14359;DHT22;7263;49.418;11.064;2023-03-01T06:39:15;-1.90;99.90
14359;DHT22;7263;49.418;11.064;2023-03-01T06:41:43;-1.90;99.90
14359;DHT22;7263;49.418;11.064;2023-03-01T06:44:09;-1.80;99.90
14359;DHT22;7263;49.418;11.064;2023-03-01T06:46:36;-1.80;99.90
14359;DHT22;7263;49.418;11.064;2023-03-01T06:49:03;-1.80;99.90
14359;DHT22;7263;49.418;11.064;2023-03-01T06:51:35;-1.70;99.90
14359;DHT22;7263;49.418;11.064;2023-03-01T06:54:02;-1.70;99.90
14359;DHT22;7263;49.418;11.064;2023-03-01T06:56:30;-1.60;99.90
14359;DHT22;7263;49.418;11.064;2023-03-01T06:58:57;-1.60;99.90
14359;DHT22;7263;49.418;11.064;2023-03-01T07:01:24;-1.50;99.90
14359;DHT22;7263;49.418;11.064;2023-03-01T07:03:51;-1.50;99.90
14359;DHT22;7263;49.418;11.064;2023-03-01T07:06:17;-1.30;99.90
14359;DHT22;7263;49.418;11.064;2023-03-01T07:08:44;-1.30;99.90
14359;DHT22;7263;49.418;11.064;2023-03-01T07:11:11;-1.10;99.90
14359;DHT22;7263;49.418;11.064;2023-03-01T07:13:40;-0.90;99.90
14359;DHT22;7263;49.418;11.064;2023-03-01T07:16:07;-0.80;99.90
14359;DHT22;7263;49.418;11.064;2023-03-01T07:18:34;-0.60;99.90
14359;DHT22;7263;49.418;11.064;2023-03-01T07:21:04;-0.60;99.90
14359;DHT22;7263;49.418;11.064;2023-03-01T07:23:31;-0.40;99.90
14359;DHT22;7263;49.418;11.064;2023-03-01T07:25:58;-0.20;99.90
14359;DHT22;7263;49.418;11.064;2023-03-01T07:28:26;-0.10;99.90
14359;DHT22;7263;49.418;11.064;2023-03-01T07:30:54;-0.20;99.90
14359;DHT22;7263;49.418;11.064;2023-03-01T07:33:21;-0.10;99.90
14359;DHT22;7263;49.418;11.064;2023-03-01T07:35:48;0.00;99.90
14359;DHT22;7263;49.418;11.064;2023-03-01T07:40:42;0.20;99.90
14359;DHT22;7263;49.418;11.064;2023-03-01T07:43:09;0.40;99.90
14359;DHT22;7263;49.418;11.064;2023-03-01T07:45:35;0.50;99.90
14359;DHT22;7263;49.418;11.064;2023-03-01T07:48:04;0.80;99.90
14359;DHT22;7263;49.418;11.064;2023-03-01T07:50:31;1.00;99.90
14359;DHT22;7263;49.418;11.064;2023-03-01T07:52:57;1.20;99.90
14359;DHT22;7263;49.418;11.064;2023-03-01T07:55:24;1.30;99.90
14359;DHT22;7263;49.418;11.064;2023-03-01T07:57:51;1.50;99.90
14359;DHT22;7263;49.418;11.064;2023-03-01T08:00:18;1.60;99.90
14359;DHT22;7263;49.418;11.064;2023-03-01T08:02:45;1.70;99.90
14359;DHT22;7263;49.418;11.064;2023-03-01T08:05:13;2.00;99.90
14359;DHT22;7263;49.418;11.064;2023-03-01T08:07:40;2.30;99.90
14359;DHT22;7263;49.418;11.064;2023-03-01T08:10:08;2.40;99.90
14359;DHT22;7263;49.418;11.064;2023-03-01T08:12:35;2.40;99.90
14359;DHT22;7263;49.418;11.064;2023-03-01T08:15:02;2.80;99.90
14359;DHT22;7263;49.418;11.064;2023-03-01T08:17:28;3.30;99.90
14359;DHT22;7263;49.418;11.064;2023-03-01T08:19:55;3.70;99.90
14359;DHT22;7263;49.418;11.064;2023-03-01T08:22:23;3.90;99.90
14359;DHT22;7263;49.418;11.064;2023-03-01T08:24:50;4.00;99.90
14359;DHT22;7263;49.418;11.064;2023-03-01T08:27:17;3.90;99.90
14359;DHT22;7263;49.418;11.064;2023-03-01T08:29:44;4.40;99.90
14359;DHT22;7263;49.418;11.064;2023-03-01T08:32:10;4.50;99.90
14359;DHT22;7263;49.418;11.064;2023-03-01T08:34:37;4.70;99.90
14359;DHT22;7263;49.418;11.064;2023-03-01T08:37:04;4.70;99.90
14359;DHT22;7263;49.418;11.064;2023-03-01T08:39:32;5.00;99.90
14359;DHT22;7263;49.418;11.064;2023-03-01T08:41:59;5.40;99.90
14359;DHT22;7263;49.418;11.064;2023-03-01T08:44:26;5.50;99.90
14359;DHT22;7263;49.418;11.064;2023-03-01T08:46:53;5.60;99.90
14359;DHT22;7263;49.418;11.064;2023-03-01T08:49:21;5.70;99.90
14359;DHT22;7263;49.418;11.064;2023-03-01T08:51:48;5.70;99.90
14359;DHT22;7263;49.418;11.064;2023-03-01T08:54:17;5.40;99.90
14359;DHT22;7263;49.418;11.064;2023-03-01T08:56:46;5.30;99.90
14359;DHT22;7263;49.418;11.064;2023-03-01T08:59:14;5.60;99.90
14359;DHT22;7263;49.418;11.064;2023-03-01T09:01:41;5.60;99.90
14359;DHT22;7263;49.418;11.064;2023-03-01T09:04:10;5.60;99.90
14359;DHT22;7263;49.418;11.064;2023-03-01T09:06:37;5.50;99.90
14359;DHT22;7263;49.418;11.064;2023-03-01T09:09:05;5.60;99.90
14359;DHT22;7263;49.418;11.064;2023-03-01T09:11:33;6.00;99.90
14359;DHT22;7263;49.418;11.064;2023-03-01T09:14:05;6.20;99.30
14359;DHT22;7263;49.418;11.064;2023-03-01T09:16:31;6.20;99.20
14359;DHT22;7263;49.418;11.064;2023-03-01T09:19:02;5.90;99.00
14359;DHT22;7263;49.418;11.064;2023-03-01T09:21:29;6.00;98.80
14359;DHT22;7263;49.418;11.064;2023-03-01T09:23:56;6.30;98.60
14359;DHT22;7263;49.418;11.064;2023-03-01T09:26:24;6.30;98.30
14359;DHT22;7263;49.418;11.064;2023-03-01T09:28:53;6.30;98.10
14359;DHT22;7263;49.418;11.064;2023-03-01T09:31:22;6.10;98.10
14359;DHT22;7263;49.418;11.064;2023-03-01T09:33:51;6.20;98.50
14359;DHT22;7263;49.418;11.064;2023-03-01T09:36:20;6.40;97.60
14359;DHT22;7263;49.418;11.064;2023-03-01T09:38:47;6.80;98.00
14359;DHT22;7263;49.418;11.064;2023-03-01T09:41:30;6.90;96.70
14359;DHT22;7263;49.418;11.064;2023-03-01T09:44:03;7.40;96.40
14359;DHT22;7263;49.418;11.064;2023-03-01T09:46:40;7.10;95.80
14359;DHT22;7263;49.418;11.064;2023-03-01T09:49:12;7.00;96.30
14359;DHT22;7263;49.418;11.064;2023-03-01T09:51:43;7.10;95.90
14359;DHT22;7263;49.418;11.064;2023-03-01T09:54:12;7.30;95.60
14359;DHT22;7263;49.418;11.064;2023-03-01T09:56:41;7.20;95.10
14359;DHT22;7263;49.418;11.064;2023-03-01T09:59:19;7.20;95.40
14359;DHT22;7263;49.418;11.064;2023-03-01T10:01:54;7.10;95.50
14359;DHT22;7263;49.418;11.064;2023-03-01T10:04:39;7.30;95.20
14359;DHT22;7263;49.418;11.064;2023-03-01T10:07:18;7.50;94.90
14359;DHT22;7263;49.418;11.064;2023-03-01T10:09:48;7.50;94.80
14359;DHT22;7263;49.418;11.064;2023-03-01T10:12:17;7.50;94.50
14359;DHT22;7263;49.418;11.064;2023-03-01T10:14:51;7.60;94.70
14359;DHT22;7263;49.418;11.064;2023-03-01T10:17:30;7.80;94.00
14359;DHT22;7263;49.418;11.064;2023-03-01T10:20:13;7.50;94.30
14359;DHT22;7263;49.418;11.064;2023-03-01T10:22:41;7.40;94.30
14359;DHT22;7263;49.418;11.064;2023-03-01T10:25:13;7.40;93.90
14359;DHT22;7263;49.418;11.064;2023-03-01T10:27:46;7.10;94.90
14359;DHT22;7263;49.418;11.064;2023-03-01T10:30:19;7.60;94.70
14359;DHT22;7263;49.418;11.064;2023-03-01T10:32:50;7.90;94.20
14359;DHT22;7263;49.418;11.064;2023-03-01T10:35:20;8.10;93.90
14359;DHT22;7263;49.418;11.064;2023-03-01T10:37:58;7.80;94.00
14359;DHT22;7263;49.418;11.064;2023-03-01T10:40:24;7.30;94.70
14359;DHT22;7263;49.418;11.064;2023-03-01T10:42:51;7.10;94.70
14359;DHT22;7263;49.418;11.064;2023-03-01T10:45:31;7.10;95.00
14359;DHT22;7263;49.418;11.064;2023-03-01T10:48:13;7.20;95.20
14359;DHT22;7263;49.418;11.064;2023-03-01T10:50:42;7.40;94.70
14359;DHT22;7263;49.418;11.064;2023-03-01T10:53:22;7.30;94.50
14359;DHT22;7263;49.418;11.064;2023-03-01T10:55:58;7.40;94.60
14359;DHT22;7263;49.418;11.064;2023-03-01T10:58:26;7.50;93.90
14359;DHT22;7263;49.418;11.064;2023-03-01T11:00:55;7.50;94.10
14359;DHT22;7263;49.418;11.064;2023-03-01T11:03:24;7.60;94.10
14359;DHT22;7263;49.418;11.064;2023-03-01T11:06:01;7.50;93.60
14359;DHT22;7263;49.418;11.064;2023-03-01T11:08:34;7.50;94.00
14359;DHT22;7263;49.418;11.064;2023-03-01T11:11:13;7.50;94.30
14359;DHT22;7263;49.418;11.064;2023-03-01T11:13:55;7.70;94.20
14359;DHT22;7263;49.418;11.064;2023-03-01T11:16:25;7.40;94.30
14359;DHT22;7263;49.418;11.064;2023-03-01T11:19:15;7.60;94.90
14359;DHT22;7263;49.418;11.064;2023-03-01T11:21:50;7.60;94.40
14359;DHT22;7263;49.418;11.064;2023-03-01T11:24:19;7.50;94.50
14359;DHT22;7263;49.418;11.064;2023-03-01T11:26:50;7.50;94.70
14359;DHT22;7263;49.418;11.064;2023-03-01T11:29:26;7.70;94.70
14359;DHT22;7263;49.418;11.064;2023-03-01T11:31:57;7.30;94.30
14359;DHT22;7263;49.418;11.064;2023-03-01T11:34:36;7.40;94.30
14359;DHT22;7263;49.418;11.064;2023-03-01T11:37:14;7.40;94.70
14359;DHT22;7263;49.418;11.064;2023-03-01T11:39:46;7.20;94.90
14359;DHT22;7263;49.418;11.064;2023-03-01T11:42:17;7.10;94.80
14359;DHT22;7263;49.418;11.064;2023-03-01T11:44:48;7.10;94.50
14359;DHT22;7263;49.418;11.064;2023-03-01T11:47:31;7.10;94.70
14359;DHT22;7263;49.418;11.064;2023-03-01T11:50:19;7.10;95.00
14359;DHT22;7263;49.418;11.064;2023-03-01T11:52:59;7.10;94.70
14359;DHT22;7263;49.418;11.064;2023-03-01T11:55:39;7.30;94.80
14359;DHT22;7263;49.418;11.064;2023-03-01T11:58:21;7.30;94.40
14359;DHT22;7263;49.418;11.064;2023-03-01T12:01:02;7.30;94.70
14359;DHT22;7263;49.418;11.064;2023-03-01T12:03:43;7.50;94.90
14359;DHT22;7263;49.418;11.064;2023-03-01T12:09:27;7.50;94.50
14359;DHT22;7263;49.418;11.064;2023-03-01T12:12:12;7.50;94.30
14359;DHT22;7263;49.418;11.064;2023-03-01T12:14:51;7.50;94.40
14359;DHT22;7263;49.418;11.064;2023-03-01T12:17:45;7.50;94.40
14359;DHT22;7263;49.418;11.064;2023-03-01T12:20:21;7.50;94.60
14359;DHT22;7263;49.418;11.064;2023-03-01T12:23:33;7.40;94.50
14359;DHT22;7263;49.418;11.064;2023-03-01T12:26:10;7.30;94.80
14359;DHT22;7263;49.418;11.064;2023-03-01T12:28:55;7.40;94.70
14359;DHT22;7263;49.418;11.064;2023-03-01T12:31:57;7.30;94.80
14359;DHT22;7263;49.418;11.064;2023-03-01T12:34:39;7.20;94.70
14359;DHT22;7263;49.418;11.064;2023-03-01T12:37:22;7.10;95.40
14359;DHT22;7263;49.418;11.064;2023-03-01T12:40:03;7.10;95.80
14359;DHT22;7263;49.418;11.064;2023-03-01T12:42:35;7.10;95.30
14359;DHT22;7263;49.418;11.064;2023-03-01T12:45:25;6.90;95.60
14359;DHT22;7263;49.418;11.064;2023-03-01T12:48:07;6.90;95.80
14359;DHT22;7263;49.418;11.064;2023-03-01T12:50:39;6.90;96.20
14359;DHT22;7263;49.418;11.064;2023-03-01T12:53:15;6.90;96.00
14359;DHT22;7263;49.418;11.064;2023-03-01T12:55:45;6.90;96.50
14359;DHT22;7263;49.418;11.064;2023-03-01T12:58:20;6.90;96.70
14359;DHT22;7263;49.418;11.064;2023-03-01T13:01:00;6.90;96.70
14359;DHT22;7263;49.418;11.064;2023-03-01T13:03:36;6.90;96.80
14359;DHT22;7263;49.418;11.064;2023-03-01T13:06:11;6.90;97.10
14359;DHT22;7263;49.418;11.064;2023-03-01T13:08:43;7.00;97.50
14359;DHT22;7263;49.418;11.064;2023-03-01T13:11:19;7.00;97.80
14359;DHT22;7263;49.418;11.064;2023-03-01T13:13:47;7.00;97.80
14359;DHT22;7263;49.418;11.064;2023-03-01T13:19:14;6.90;98.10
14359;DHT22;7263;49.418;11.064;2023-03-01T13:21:42;7.00;98.40
14359;DHT22;7263;49.418;11.064;2023-03-01T13:24:28;7.00;98.60
14359;DHT22;7263;49.418;11.064;2023-03-01T13:27:18;7.10;98.50
14359;DHT22;7263;49.418;11.064;2023-03-01T13:29:49;7.20;98.60
14359;DHT22;7263;49.418;11.064;2023-03-01T13:32:22;7.20;98.70
14359;DHT22;7263;49.418;11.064;2023-03-01T13:34:56;7.30;98.30
14359;DHT22;7263;49.418;11.064;2023-03-01T13:37:29;7.20;98.40
14359;DHT22;7263;49.418;11.064;2023-03-01T13:39:59;5.30;97.80
14359;DHT22;7263;49.418;11.064;2023-03-01T13:42:37;7.30;98.50
14359;DHT22;7263;49.418;11.064;2023-03-01T13:47:52;7.30;98.80
14359;DHT22;7263;49.418;11.064;2023-03-01T13:50:23;7.30;98.90
14359;DHT22;7263;49.418;11.064;2023-03-01T13:52:54;7.30;99.10
14359;DHT22;7263;49.418;11.064;2023-03-01T13:55:25;7.30;99.30
14359;DHT22;7263;49.418;11.064;2023-03-01T13:57:57;7.30;99.60
14359;DHT22;7263;49.418;11.064;2023-03-01T14:00:31;7.30;99.40
14359;DHT22;7263;49.418;11.064;2023-03-01T14:03:10;7.30;99.30
14359;DHT22;7263;49.418;11.064;2023-03-01T14:05:38;7.30;99.60
14359;DHT22;7263;49.418;11.064;2023-03-01T14:08:14;7.40;99.70
14359;DHT22;7263;49.418;11.064;2023-03-01T14:11:02;7.40;99.70
14359;DHT22;7263;49.418;11.064;2023-03-01T14:13:45;7.40;99.90
14359;DHT22;7263;49.418;11.064;2023-03-01T14:16:23;7.50;99.90
14359;DHT22;7263;49.418;11.064;2023-03-01T14:19:02;7.70;99.90
14359;DHT22;7263;49.418;11.064;2023-03-01T14:21:31;7.60;99.80
14359;DHT22;7263;49.418;11.064;2023-03-01T14:23:58;7.60;99.90
14359;DHT22;7263;49.418;11.064;2023-03-01T14:26:25;7.60;99.90
14359;DHT22;7263;49.418;11.064;2023-03-01T14:28:53;7.50;99.90
14359;DHT22;7263;49.418;11.064;2023-03-01T14:31:34;7.50;99.90
14359;DHT22;7263;49.418;11.064;2023-03-01T14:34:01;7.60;99.90
14359;DHT22;7263;49.418;11.064;2023-03-01T14:36:31;7.60;99.90
14359;DHT22;7263;49.418;11.064;2023-03-01T14:38:58;7.60;99.90
14359;DHT22;7263;49.418;11.064;2023-03-01T14:41:33;7.60;99.90
14359;DHT22;7263;49.418;11.064;2023-03-01T14:44:05;7.60;99.90
14359;DHT22;7263;49.418;11.064;2023-03-01T14:46:34;7.60;99.90
14359;DHT22;7263;49.418;11.064;2023-03-01T14:49:04;7.70;99.90
14359;DHT22;7263;49.418;11.064;2023-03-01T14:51:36;7.60;99.90
14359;DHT22;7263;49.418;11.064;2023-03-01T14:54:05;7.70;99.90
14359;DHT22;7263;49.418;11.064;2023-03-01T14:56:44;7.60;99.90
14359;DHT22;7263;49.418;11.064;2023-03-01T14:59:12;7.50;99.90
14359;DHT22;7263;49.418;11.064;2023-03-01T15:01:40;7.50;99.90
14359;DHT22;7263;49.418;11.064;2023-03-01T15:04:11;7.50;99.90
14359;DHT22;7263;49.418;11.064;2023-03-01T15:06:39;7.50;99.90
14359;DHT22;7263;49.418;11.064;2023-03-01T15:09:06;7.50;99.90
14359;DHT22;7263;49.418;11.064;2023-03-01T15:11:33;7.50;99.90
14359;DHT22;7263;49.418;11.064;2023-03-01T15:14:28;7.60;99.90
14359;DHT22;7263;49.418;11.064;2023-03-01T15:16:55;7.50;99.90
14359;DHT22;7263;49.418;11.064;2023-03-01T15:19:24;7.50;99.90
14359;DHT22;7263;49.418;11.064;2023-03-01T15:21:53;7.50;99.90
14359;DHT22;7263;49.418;11.064;2023-03-01T15:24:23;7.50;99.90
14359;DHT22;7263;49.418;11.064;2023-03-01T15:26:52;7.50;99.90
14359;DHT22;7263;49.418;11.064;2023-03-01T15:29:23;7.50;99.90
14359;DHT22;7263;49.418;11.064;2023-03-01T15:31:58;7.40;99.90
14359;DHT22;7263;49.418;11.064;2023-03-01T15:34:27;7.40;99.90
14359;DHT22;7263;49.418;11.064;2023-03-01T15:36:55;7.40;99.90
14359;DHT22;7263;49.418;11.064;2023-03-01T15:39:39;7.40;99.90
14359;DHT22;7263;49.418;11.064;2023-03-01T15:42:10;7.40;99.90
14359;DHT22;7263;49.418;11.064;2023-03-01T15:44:38;7.40;99.90
14359;DHT22;7263;49.418;11.064;2023-03-01T15:47:23;7.30;99.90
14359;DHT22;7263;49.418;11.064;2023-03-01T15:49:54;7.20;99.90
14359;DHT22;7263;49.418;11.064;2023-03-01T15:52:24;7.20;99.90
14359;DHT22;7263;49.418;11.064;2023-03-01T15:54:55;7.20;99.90
14359;DHT22;7263;49.418;11.064;2023-03-01T15:57:22;7.20;99.90
14359;DHT22;7263;49.418;11.064;2023-03-01T15:59:49;7.10;99.90
14359;DHT22;7263;49.418;11.064;2023-03-01T16:02:17;7.10;99.90
14359;DHT22;7263;49.418;11.064;2023-03-01T16:04:46;7.10;99.90
14359;DHT22;7263;49.418;11.064;2023-03-01T16:07:14;7.10;99.90
14359;DHT22;7263;49.418;11.064;2023-03-01T16:09:41;7.10;99.90
14359;DHT22;7263;49.418;11.064;2023-03-01T16:12:11;7.00;99.90
14359;DHT22;7263;49.418;11.064;2023-03-01T16:14:39;7.00;99.90
14359;DHT22;7263;49.418;11.064;2023-03-01T16:17:06;6.90;99.90